Time;durP1;ratioP1;P1;durP2;ratioP2;P2;SDS_P1;SDS_P2;PMS_P1;PMS_P2;Temp;Humidity;BMP_temperature;BMP_pressure;BME280_temperature;BME280_humidity;BME280_pressure;Samples;Min_cycle;Max_cycle;Signal;HPM_P1;HPM_P2
2022/07/01 00:01:49;;;;;;;2.07;1.10;;;;;;;;;;5024555;28;20804;-78
2022/07/01 00:04:16;;;;;;;1.30;1.13;;;;;;;;;;5024934;28;20832;-78
2022/07/01 00:06:44;;;;;;;1.70;1.30;;;;;;;;;;5028190;28;20462;-79
2022/07/01 00:09:11;;;;;;;1.40;1.30;;;;;;;;;;5027695;28;20470;-78
2022/07/01 00:11:38;;;;;;;1.50;1.23;;;;;;;;;;5028354;28;20459;-80
2022/07/01 00:14:05;;;;;;;2.00;1.20;;;;;;;;;;5020162;28;20500;-79
2022/07/01 00:16:32;;;;;;;2.90;1.40;;;;;;;;;;5038313;28;20595;-80
2022/07/01 00:19:01;;;;;;;1.60;1.50;;;;;;;;;;5026793;28;20446;-78
2022/07/01 00:21:28;;;;;;;1.50;1.30;;;;;;;;;;5030265;28;20473;-78
2022/07/01 00:23:55;;;;;;;1.30;1.20;;;;;;;;;;5032361;28;20458;-80
2022/07/01 00:26:22;;;;;;;1.30;1.20;;;;;;;;;;5031170;28;20681;-78
2022/07/01 00:28:49;;;;;;;1.47;1.37;;;;;;;;;;5026248;28;20840;-78
2022/07/01 00:31:16;;;;;;;1.40;1.30;;;;;;;;;;5023364;28;20458;-78
2022/07/01 00:33:43;;;;;;;1.90;1.60;;;;;;;;;;5024947;28;20473;-79
2022/07/01 00:36:11;;;;;;;1.60;1.50;;;;;;;;;;5040155;28;20557;-78
2022/07/01 00:38:38;;;;;;;2.17;2.00;;;;;;;;;;5029194;28;20457;-81
2022/07/01 00:41:05;;;;;;;2.67;1.90;;;;;;;;;;5025650;28;20465;-78
2022/07/01 00:43:36;;;;;;;2.07;1.87;;;;;;;;;;5028162;28;20973;-78
2022/07/01 00:46:03;;;;;;;1.63;1.53;;;;;;;;;;5032497;28;20938;-79
2022/07/01 00:48:31;;;;;;;2.83;2.27;;;;;;;;;;5028552;28;20466;-78
2022/07/01 00:50:59;;;;;;;2.63;2.43;;;;;;;;;;5029861;28;20461;-77
2022/07/01 00:53:27;;;;;;;2.60;2.40;;;;;;;;;;5034602;28;20469;-76
2022/07/01 00:55:54;;;;;;;2.23;1.93;;;;;;;;;;5034081;28;20894;-76
2022/07/01 00:58:21;;;;;;;2.67;2.37;;;;;;;;;;5024478;28;20470;-77
2022/07/01 01:00:48;;;;;;;3.23;2.03;;;;;;;;;;5030712;28;20467;-78
2022/07/01 01:03:15;;;;;;;1.90;1.77;;;;;;;;;;5022855;28;20987;-79
2022/07/01 01:05:43;;;;;;;6.70;2.07;;;;;;;;;;5023389;28;20827;-78
2022/07/01 01:08:10;;;;;;;2.17;1.90;;;;;;;;;;5020766;28;20458;-78
2022/07/01 01:10:39;;;;;;;1.93;1.83;;;;;;;;;;5028545;28;20498;-78
2022/07/01 01:13:06;;;;;;;2.20;2.00;;;;;;;;;;5020862;28;20458;-80
2022/07/01 01:15:33;;;;;;;3.03;1.93;;;;;;;;;;5029852;28;20459;-81
2022/07/01 01:18:00;;;;;;;2.17;2.00;;;;;;;;;;5023064;28;20811;-79
2022/07/01 01:20:28;;;;;;;2.10;1.90;;;;;;;;;;5026780;28;20436;-80
2022/07/01 01:22:57;;;;;;;1.80;1.70;;;;;;;;;;5028380;28;20957;-80
2022/07/01 01:25:24;;;;;;;1.83;1.53;;;;;;;;;;5030010;28;20454;-80
2022/07/01 01:27:51;;;;;;;1.70;1.60;;;;;;;;;;5023286;28;20455;-80
2022/07/01 01:30:19;;;;;;;1.90;1.60;;;;;;;;;;5025923;28;20478;-80
2022/07/01 01:32:46;;;;;;;1.90;1.80;;;;;;;;;;5026570;28;20450;-80
2022/07/01 01:35:13;;;;;;;2.10;1.90;;;;;;;;;;5027631;28;20457;-80
2022/07/01 01:37:41;;;;;;;1.93;1.67;;;;;;;;;;5018061;28;20585;-79
2022/07/01 01:40:10;;;;;;;3.90;2.10;;;;;;;;;;5027424;28;20462;-80
2022/07/01 01:42:37;;;;;;;1.70;1.50;;;;;;;;;;5026002;28;20466;-80
2022/07/01 01:45:04;;;;;;;2.17;1.73;;;;;;;;;;5022990;28;21105;-79
2022/07/01 01:47:32;;;;;;;1.30;1.20;;;;;;;;;;5023666;28;20458;-79
2022/07/01 01:49:59;;;;;;;1.70;1.50;;;;;;;;;;5028337;28;20465;-79
2022/07/01 01:52:26;;;;;;;2.47;1.70;;;;;;;;;;5027058;28;20485;-80
2022/07/01 01:54:53;;;;;;;1.47;1.37;;;;;;;;;;5029334;28;20466;-79
2022/07/01 01:57:21;;;;;;;3.47;2.30;;;;;;;;;;5025695;28;20478;-80
2022/07/01 01:59:48;;;;;;;1.57;1.47;;;;;;;;;;5026653;28;20466;-80
2022/07/01 02:02:15;;;;;;;2.30;1.37;;;;;;;;;;5028604;28;20536;-80
2022/07/01 02:04:42;;;;;;;1.97;1.77;;;;;;;;;;5026396;28;20938;-79
2022/07/01 02:07:10;;;;;;;1.77;1.67;;;;;;;;;;5024575;28;20454;-80
2022/07/01 02:09:37;;;;;;;1.87;1.77;;;;;;;;;;5031520;28;20458;-80
2022/07/01 02:12:04;;;;;;;2.10;2.00;;;;;;;;;;5015566;28;20458;-79
2022/07/01 02:14:33;;;;;;;2.27;2.07;;;;;;;;;;5025028;28;20546;-80
2022/07/01 02:17:00;;;;;;;2.93;2.67;;;;;;;;;;5024430;28;20493;-78
2022/07/01 02:19:27;;;;;;;2.50;2.30;;;;;;;;;;5024536;28;20475;-79
2022/07/01 02:21:54;;;;;;;1.70;1.60;;;;;;;;;;5021297;28;20467;-79
2022/07/01 02:24:21;;;;;;;2.70;2.50;;;;;;;;;;5020192;28;20481;-80
2022/07/01 02:26:48;;;;;;;1.87;1.67;;;;;;;;;;5024866;28;20937;-80
2022/07/01 02:29:15;;;;;;;2.80;2.60;;;;;;;;;;5024638;28;20466;-80
2022/07/01 02:31:43;;;;;;;3.13;2.83;;;;;;;;;;5024409;28;20469;-80
2022/07/01 02:34:11;;;;;;;3.50;3.03;;;;;;;;;;5023008;28;20508;-80
2022/07/01 02:36:38;;;;;;;2.70;2.50;;;;;;;;;;5022711;28;20852;-80
2022/07/01 02:39:05;;;;;;;3.27;3.03;;;;;;;;;;5021904;28;20458;-80
2022/07/01 02:42:22;;;;;;;3.03;2.80;;;;;;;;;;5023147;28;20477;-80
2022/07/01 02:44:19;;;;;;;3.35;3.05;;;;;;;;;;5028198;28;20856;-80
2022/07/01 02:46:47;;;;;;;3.50;3.20;;;;;;;;;;5020463;28;20540;-80
2022/07/01 02:49:16;;;;;;;2.20;1.80;;;;;;;;;;5020474;28;20586;-79
2022/07/01 02:51:43;;;;;;;2.80;2.60;;;;;;;;;;5022457;28;20953;-80
2022/07/01 02:54:10;;;;;;;3.50;3.20;;;;;;;;;;5023469;28;20671;-79
2022/07/01 02:56:37;;;;;;;3.70;3.40;;;;;;;;;;5026783;28;20842;-80
2022/07/01 02:59:04;;;;;;;2.63;2.43;;;;;;;;;;5022343;28;20449;-80
2022/07/01 03:01:31;;;;;;;3.50;3.20;;;;;;;;;;5020046;28;20478;-80
2022/07/01 03:03:59;;;;;;;4.35;3.95;;;;;;;;;;5021670;28;20450;-80
2022/07/01 03:06:26;;;;;;;4.10;3.80;;;;;;;;;;5023807;28;20199;-79
2022/07/01 03:08:53;;;;;;;4.30;3.90;;;;;;;;;;5017636;28;20210;-79
2022/07/01 03:11:20;;;;;;;3.70;3.10;;;;;;;;;;5028372;28;20195;-84
2022/07/01 03:13:47;;;;;;;4.07;3.73;;;;;;;;;;5035009;28;20461;-84
2022/07/01 03:16:15;;;;;;;4.78;4.40;;;;;;;;;;5029911;28;20961;-82
2022/07/01 03:18:42;;;;;;;2.90;2.70;;;;;;;;;;5024562;28;20684;-85
2022/07/01 03:21:10;;;;;;;3.80;3.50;;;23.40;99.90;;;;;;5027108;28;20765;-82
2022/07/01 03:23:37;;;;;;;4.15;3.85;;;22.00;99.90;;;;;;5027668;28;20448;-83
2022/07/01 03:26:03;;;;;;;3.67;3.38;;;22.00;99.90;;;;;;5030655;28;20295;-84
2022/07/01 03:28:31;;;;;;;4.28;3.97;;;21.90;99.90;;;;;;5018871;28;20200;-84
2022/07/01 03:30:58;;;;;;;3.65;3.35;;;21.90;99.90;;;;;;5028899;28;20717;-84
2022/07/01 03:33:24;;;;;;;4.90;3.37;;;21.90;99.90;;;;;;5029434;28;20650;-85
2022/07/01 03:35:51;;;;;;;3.55;3.35;;;21.90;99.90;;;;;;5019818;28;20451;-86
2022/07/01 03:38:19;;;;;;;3.33;3.05;;;21.80;99.90;;;;;;5025161;28;20226;-85
2022/07/01 03:40:46;;;;;;;3.38;3.08;;;21.80;99.90;;;;;;5030538;28;20202;-84
2022/07/01 03:43:13;;;;;;;3.70;3.40;;;21.80;99.90;;;;;;5027515;28;20659;-86
2022/07/01 03:45:40;;;;;;;5.20;3.97;;;21.80;99.90;;;;;;5027015;28;20453;-83
2022/07/01 03:48:07;;;;;;;2.83;2.63;;;21.80;99.90;;;;;;5023567;28;20286;-83
2022/07/01 03:50:34;;;;;;;5.30;3.22;;;21.70;99.90;;;;;;5029940;28;20195;-85
2022/07/01 03:55:46;;;;;;;3.55;3.10;;;21.70;99.90;;;;;;5027031;28;20198;-85
2022/07/01 03:58:12;;;;;;;3.72;3.42;;;21.70;99.90;;;;;;5023507;28;20230;-85
2022/07/01 04:00:39;;;;;;;3.75;3.38;;;21.70;99.90;;;;;;5025861;28;20654;-84
2022/07/01 04:03:07;;;;;;;3.88;3.45;;;21.60;99.90;;;;;;5027975;28;20223;-85
2022/07/01 04:05:35;;;;;;;4.45;3.38;;;21.60;99.90;;;;;;5031891;28;20650;-85
2022/07/01 04:08:03;;;;;;;3.78;3.47;;;21.60;99.90;;;;;;5025579;28;20571;-86
2022/07/01 04:10:31;;;;;;;2.50;2.30;;;21.60;99.90;;;;;;5035827;28;20199;-84
2022/07/01 04:12:59;;;;;;;3.03;2.72;;;21.60;99.90;;;;;;5028403;28;20203;-83
2022/07/01 04:15:26;;;;;;;3.58;3.28;;;21.60;99.90;;;;;;5028505;28;20489;-86
2022/07/01 04:17:53;;;;;;;3.65;3.25;;;21.50;99.90;;;;;;5032255;28;20215;-84
2022/07/01 04:20:20;;;;;;;2.88;2.67;;;21.50;99.90;;;;;;5020490;28;20203;-83
2022/07/01 04:22:46;;;;;;;2.95;2.70;;;21.50;99.90;;;;;;5025563;28;20219;-83
2022/07/01 04:25:13;;;;;;;2.85;2.50;;;21.50;99.90;;;;;;5017603;28;20204;-82
2022/07/01 04:27:40;;;;;;;5.03;4.63;;;21.50;99.90;;;;;;5026875;28;20210;-86
2022/07/01 04:30:09;;;;;;;3.10;2.72;;;21.40;99.90;;;;;;5027395;28;20671;-84
2022/07/01 04:32:36;;;;;;;4.05;3.40;;;21.40;99.90;;;;;;5024476;28;20214;-84
2022/07/01 04:35:02;;;;;;;3.78;2.58;;;21.40;99.90;;;;;;5021507;28;20234;-84
2022/07/01 04:37:29;;;;;;;3.25;3.03;;;21.40;99.90;;;;;;5032122;28;20226;-85
2022/07/01 04:39:56;;;;;;;2.72;2.53;;;21.40;99.90;;;;;;5025245;28;20205;-82
2022/07/01 04:42:22;;;;;;;2.10;1.90;;;21.30;99.90;;;;;;5031947;28;20213;-83
2022/07/01 04:44:48;;;;;;;2.90;2.70;;;21.30;99.90;;;;;;5025470;28;20210;-83
2022/07/01 04:47:16;;;;;;;3.00;2.75;;;21.30;99.90;;;;;;5029941;28;20194;-82
2022/07/01 04:49:43;;;;;;;150.77;143.98;;;21.30;99.90;;;;;;5031907;28;20454;-82
2022/07/01 04:52:10;;;;;;;124.63;118.20;;;21.20;99.90;;;;;;5021873;28;20976;-81
2022/07/01 04:54:37;;;;;;;2.77;2.37;;;21.00;99.90;;;;;;5024896;28;20300;-82
2022/07/01 04:57:04;;;;;;;2.73;2.53;;;20.80;99.90;;;;;;5032127;28;20478;-81
2022/07/01 04:59:31;;;;;;;3.13;2.83;;;20.60;99.90;;;;;;5016673;28;20478;-84
2022/07/01 05:01:59;;;;;;;3.70;2.30;;;20.50;99.90;;;;;;5023789;28;20873;-81
2022/07/01 05:04:28;;;;;;;2.75;2.55;;;20.50;99.90;;;;;;5033528;28;20217;-83
2022/07/01 05:06:54;;;;;;;2.88;2.50;;;20.40;99.90;;;;;;5038701;28;20198;-80
2022/07/01 05:09:21;;;;;;;3.40;3.10;;;20.40;99.90;;;;;;5020705;28;20211;-80
2022/07/01 05:11:48;;;;;;;3.07;2.77;;;20.30;99.90;;;;;;5025320;28;20484;-80
2022/07/01 05:14:14;;;;;;;2.50;2.30;;;20.30;99.90;;;;;;5031045;28;20451;-82
2022/07/01 05:16:41;;;;;;;3.60;2.95;;;20.30;99.90;;;;;;5028611;28;20489;-82
2022/07/01 05:22:00;;;;;;;2.83;2.60;;;20.20;99.90;;;;;;5027469;28;20453;-82
2022/07/01 05:24:30;;;;;;;2.75;2.55;;;20.20;99.90;;;;;;5030037;28;20192;-81
2022/07/01 05:26:57;;;;;;;2.58;2.38;;;20.20;99.90;;;;;;5030550;28;20815;-81
2022/07/01 05:29:23;;;;;;;3.07;2.80;;;20.20;99.90;;;;;;5028318;28;20213;-81
2022/07/01 05:31:50;;;;;;;3.30;3.00;;;20.20;99.90;;;;;;5020741;28;20790;-81
2022/07/01 05:34:17;;;;;;;2.87;2.63;;;20.20;99.90;;;;;;5032066;28;20832;-81
2022/07/01 05:36:44;;;;;;;3.35;3.05;;;20.20;99.90;;;;;;5028688;28;20590;-80
2022/07/01 05:39:12;;;;;;;2.47;2.27;;;20.20;99.90;;;;;;5031065;28;20204;-80
2022/07/01 05:41:39;;;;;;;3.15;2.85;;;20.20;99.90;;;;;;5030635;28;20465;-80
2022/07/01 05:44:06;;;;;;;3.25;2.80;;;20.10;99.90;;;;;;5022053;28;20206;-81
2022/07/01 05:46:33;;;;;;;3.67;3.08;;;20.10;99.90;;;;;;5027417;28;20222;-81
2022/07/01 05:49:00;;;;;;;3.80;2.63;;;20.10;99.90;;;;;;5026686;28;20287;-81
2022/07/01 05:51:27;;;;;;;3.30;2.80;;;20.10;99.90;;;;;;5026118;28;20374;-83
2022/07/01 05:53:56;;;;;;;3.28;2.97;;;20.10;99.90;;;;;;5021705;28;20670;-83
2022/07/01 05:56:26;;;;;;;3.40;3.10;;;20.10;99.90;;;;;;5027832;28;20210;-82
2022/07/01 05:58:54;;;;;;;4.03;2.93;;;20.10;99.90;;;;;;5028204;28;20343;-81
2022/07/01 06:01:20;;;;;;;2.85;2.60;;;20.10;99.90;;;;;;5029129;28;20829;-82
2022/07/01 06:03:47;;;;;;;2.70;2.50;;;20.10;99.90;;;;;;5032163;28;20207;-81
2022/07/01 06:06:14;;;;;;;2.80;2.50;;;20.10;99.90;;;;;;5026668;28;20547;-82
2022/07/01 06:08:41;;;;;;;3.20;2.90;;;20.10;99.90;;;;;;5026031;28;20202;-81
2022/07/01 06:11:08;;;;;;;2.83;2.63;;;20.10;99.90;;;;;;5028886;28;20213;-82
2022/07/01 06:13:36;;;;;;;3.58;3.28;;;20.10;99.90;;;;;;5026773;28;20227;-82
2022/07/01 06:16:03;;;;;;;3.72;3.00;;;20.10;99.90;;;;;;5028177;28;20214;-81
2022/07/01 06:18:30;;;;;;;2.88;2.67;;;20.10;99.90;;;;;;5026629;28;20242;-80
2022/07/01 06:20:57;;;;;;;4.00;3.70;;;20.10;99.90;;;;;;5024708;28;20203;-81
2022/07/01 06:23:24;;;;;;;2.75;2.50;;;20.10;99.90;;;;;;5027312;28;20198;-80
2022/07/01 06:25:50;;;;;;;3.78;3.15;;;20.00;99.90;;;;;;5024770;28;20199;-81
2022/07/01 06:28:17;;;;;;;2.78;2.58;;;20.00;99.90;;;;;;5023852;28;20203;-81
2022/07/01 06:30:45;;;;;;;3.25;2.95;;;20.10;99.90;;;;;;5023477;28;20200;-81
2022/07/01 06:33:13;;;;;;;4.55;2.90;;;20.00;99.90;;;;;;5017530;28;20202;-81
2022/07/01 06:35:40;;;;;;;3.17;2.97;;;20.10;99.90;;;;;;5022721;28;20215;-81
2022/07/01 06:38:07;;;;;;;3.15;2.88;;;20.00;99.90;;;;;;5019956;28;20216;-81
2022/07/01 06:40:34;;;;;;;3.30;3.00;;;20.00;99.90;;;;;;5021043;28;20647;-81
2022/07/01 06:43:01;;;;;;;3.30;2.88;;;20.00;99.90;;;;;;5027382;28;20422;-81
2022/07/01 06:45:27;;;;;;;3.17;2.88;;;20.00;99.90;;;;;;5026143;28;20659;-81
2022/07/01 06:47:55;;;;;;;3.50;3.00;;;20.00;99.90;;;;;;5028726;28;20234;-81
2022/07/01 06:50:22;;;;;;;2.90;2.70;;;20.00;99.90;;;;;;5020700;28;20850;-81
2022/07/01 06:52:49;;;;;;;3.78;3.45;;;20.00;99.90;;;;;;5020497;28;20446;-81
2022/07/01 06:55:16;;;;;;;3.90;3.60;;;20.00;99.90;;;;;;5030074;28;20198;-82
2022/07/01 06:57:43;;;;;;;3.03;2.83;;;20.00;99.90;;;;;;5027630;28;20219;-81
2022/07/01 07:00:11;;;;;;;2.80;2.60;;;20.00;99.90;;;;;;5023984;28;20721;-83
2022/07/01 07:02:39;;;;;;;3.15;2.85;;;20.00;99.90;;;;;;5021410;28;20484;-82
2022/07/01 07:05:08;;;;;;;3.70;3.22;;;20.00;99.90;;;;;;5024662;28;20199;-82
2022/07/01 07:07:35;;;;;;;3.00;2.80;;;19.90;99.90;;;;;;5024072;28;20708;-80
2022/07/01 07:10:02;;;;;;;2.78;2.58;;;19.90;99.90;;;;;;5018765;28;20514;-82
2022/07/01 07:12:29;;;;;;;3.15;2.95;;;19.90;99.90;;;;;;5024989;28;20203;-80
2022/07/01 07:14:55;;;;;;;2.97;2.67;;;19.90;99.90;;;;;;5019548;28;20214;-82
2022/07/01 07:17:22;;;;;;;3.75;2.97;;;19.90;99.90;;;;;;5025708;28;20202;-81
2022/07/01 07:19:49;;;;;;;3.15;2.90;;;19.90;99.90;;;;;;5024141;28;20218;-80
2022/07/01 07:22:17;;;;;;;3.93;3.00;;;19.90;99.90;;;;;;5028611;28;20210;-80
2022/07/01 07:24:43;;;;;;;3.35;3.05;;;20.00;99.90;;;;;;5018647;28;20614;-81
2022/07/01 07:27:10;;;;;;;4.00;2.80;;;20.00;99.90;;;;;;5017055;28;20204;-81
2022/07/01 07:29:37;;;;;;;4.35;3.95;;;20.00;99.90;;;;;;5026162;28;20477;-81
2022/07/01 07:32:04;;;;;;;3.30;3.10;;;20.10;99.90;;;;;;5018767;28;20195;-83
2022/07/01 07:34:31;;;;;;;3.72;3.08;;;20.10;99.90;;;;;;5032660;28;20206;-81
2022/07/01 07:36:58;;;;;;;2.80;2.58;;;20.10;99.90;;;;;;5029670;28;20677;-80
2022/07/01 07:39:26;;;;;;;3.95;2.67;;;20.20;99.90;;;;;;5030790;28;20223;-81
2022/07/01 07:41:52;;;;;;;3.42;2.60;;;20.20;99.90;;;;;;5028841;28;20556;-80
2022/07/01 07:44:19;;;;;;;3.15;2.83;;;20.20;99.90;;;;;;5026393;28;20196;-81
2022/07/01 07:46:46;;;;;;;2.60;2.40;;;20.20;99.90;;;;;;5025335;28;20199;-81
2022/07/01 07:49:12;;;;;;;2.90;2.70;;;20.20;99.90;;;;;;5028585;28;20248;-81
2022/07/01 07:51:39;;;;;;;3.10;2.80;;;20.30;99.90;;;;;;5022417;28;20203;-80
2022/07/01 07:54:06;;;;;;;5.45;2.83;;;20.30;99.90;;;;;;5031536;28;20199;-80
2022/07/01 07:56:34;;;;;;;3.25;2.72;;;20.50;99.90;;;;;;5029547;28;20658;-81
2022/07/01 07:59:01;;;;;;;2.35;2.22;;;20.60;99.90;;;;;;5025975;28;20216;-81
2022/07/01 08:01:27;;;;;;;2.97;2.67;;;20.60;99.90;;;;;;5030595;28;20219;-81
2022/07/01 08:03:54;;;;;;;2.60;2.40;;;20.70;99.90;;;;;;5024154;28;20454;-80
2022/07/01 08:06:21;;;;;;;2.80;2.60;;;20.70;99.90;;;;;;5024352;28;20463;-81
2022/07/01 08:08:48;;;;;;;2.92;2.72;;;20.60;99.90;;;;;;5023105;28;20207;-81
2022/07/01 08:11:14;;;;;;;3.97;3.03;;;20.60;99.90;;;;;;5028397;28;20200;-81
2022/07/01 08:13:43;;;;;;;3.80;2.50;;;20.50;99.90;;;;;;5032491;28;20290;-81
2022/07/01 08:16:10;;;;;;;3.40;3.10;;;20.50;99.90;;;;;;5033487;28;20562;-79
2022/07/01 08:18:37;;;;;;;3.40;3.10;;;20.40;99.90;;;;;;5031783;28;20595;-81
2022/07/01 08:21:04;;;;;;;3.55;2.33;;;20.40;99.90;;;;;;5026234;28;20195;-80
2022/07/01 08:23:30;;;;;;;2.97;2.78;;;20.40;99.90;;;;;;5022817;28;20586;-79
2022/07/01 08:25:57;;;;;;;3.75;2.42;;;20.30;99.90;;;;;;5024007;28;20619;-79
2022/07/01 08:28:24;;;;;;;2.50;2.40;;;20.40;99.90;;;;;;5025305;28;20196;-80
2022/07/01 08:30:52;;;;;;;2.63;2.38;;;20.40;99.90;;;;;;5024458;28;20465;-82
2022/07/01 08:33:19;;;;;;;3.05;2.70;;;20.40;99.90;;;;;;5027758;28;20203;-80
2022/07/01 08:35:46;;;;;;;2.95;2.75;;;20.50;99.90;;;;;;5030675;28;20217;-79
2022/07/01 08:38:12;;;;;;;2.40;2.20;;;20.50;99.90;;;;;;5029857;28;20230;-78
2022/07/01 08:40:39;;;;;;;2.20;2.10;;;20.50;99.90;;;;;;5030289;28;20199;-79
2022/07/01 08:43:07;;;;;;;2.35;2.15;;;20.50;99.90;;;;;;5032509;28;20211;-79
2022/07/01 08:45:35;;;;;;;3.00;2.20;;;20.60;99.90;;;;;;5026642;28;20544;-80
2022/07/01 08:48:05;;;;;;;2.30;2.10;;;20.70;99.90;;;;;;5026672;28;20795;-79
2022/07/01 08:50:34;;;;;;;3.60;2.40;;;20.80;99.90;;;;;;5024111;28;20455;-80
2022/07/01 08:53:01;;;;;;;2.30;2.10;;;20.80;99.90;;;;;;5024332;28;20458;-80
2022/07/01 08:55:28;;;;;;;2.97;2.77;;;20.80;99.90;;;;;;5028585;28;20451;-79
2022/07/01 08:57:55;;;;;;;3.23;2.07;;;20.70;99.90;;;;;;5031103;28;20461;-79
2022/07/01 09:00:22;;;;;;;3.00;2.73;;;20.70;99.90;;;;;;5028168;28;20466;-79
2022/07/01 09:02:56;;;;;;;2.70;2.50;;;20.70;99.90;;;;;;5018773;28;20478;-80
2022/07/01 09:05:27;;;;;;;2.97;2.77;;;20.60;99.90;;;;;;5030355;28;20826;-79
2022/07/01 09:07:59;;;;;;;2.70;2.53;;;20.60;99.90;;;;;;5022318;28;20460;-80
2022/07/01 09:10:27;;;;;;;3.03;2.73;;;20.60;99.90;;;;;;5033182;28;20454;-80
2022/07/01 09:12:53;;;;;;;4.87;3.00;;;20.50;99.90;;;;;;5028562;28;20455;-79
2022/07/01 09:15:24;;;;;;;2.90;2.70;;;20.50;99.90;;;;;;5026280;28;20462;-80
2022/07/01 09:17:51;;;;;;;3.30;3.10;;;20.50;99.90;;;;;;5023243;28;20711;-79
2022/07/01 09:20:30;;;;;;;2.93;2.73;;;20.50;99.90;;;;;;5031381;28;21022;-80
2022/07/01 09:23:05;;;;;;;3.13;2.80;;;20.50;99.90;;;;;;5026910;28;20963;-83
2022/07/01 09:25:34;;;;;;;2.80;2.60;;;20.50;99.90;;;;;;5030066;28;20976;-81
2022/07/01 09:28:09;;;;;;;3.37;3.07;;;20.50;99.90;;;;;;5026300;28;20216;-79
2022/07/01 09:30:37;;;;;;;2.93;2.73;;;20.50;99.90;;;;;;5029158;28;20469;-80
2022/07/01 09:33:08;;;;;;;3.10;2.80;;;20.50;99.90;;;;;;5026970;28;20462;-80
2022/07/01 09:35:37;;;;;;;4.30;2.87;;;20.50;99.90;;;;;;5029158;28;20841;-80
2022/07/01 09:38:05;;;;;;;4.83;3.47;;;20.60;99.90;;;;;;5016440;28;20719;-80
2022/07/01 09:40:50;;;;;;;2.97;2.77;;;20.60;99.90;;;;;;5028407;28;20470;-82
2022/07/01 09:43:21;;;;;;;4.00;2.63;;;20.60;99.90;;;;;;5028203;28;20438;-79
2022/07/01 09:45:58;;;;;;;3.70;3.40;;;20.50;99.90;;;;;;5027356;28;20211;-81
2022/07/01 09:48:28;;;;;;;3.03;2.77;;;20.60;99.90;;;;;;5023561;28;20461;-81
2022/07/01 09:50:56;;;;;;;3.50;3.20;;;20.60;99.90;;;;;;5022645;28;20465;-81
2022/07/01 09:53:22;;;;;;;3.20;2.90;;;20.60;99.90;;;;;;5026696;28;20463;-80
2022/07/01 09:55:50;;;;;;;3.27;2.70;;;20.60;99.90;;;;;;5026310;28;20454;-82
2022/07/01 09:58:16;;;;;;;2.70;2.50;;;20.60;99.90;;;;;;5021438;28;20880;-81
2022/07/01 10:00:44;;;;;;;2.90;2.70;;;20.60;99.90;;;;;;5020902;28;20459;-80
2022/07/01 10:03:12;;;;;;;3.30;3.00;;;20.70;99.90;;;;;;5023128;28;20513;-82
2022/07/01 10:05:48;;;;;;;3.40;3.20;;;20.70;99.90;;;;;;5013645;28;20470;-82
2022/07/01 10:08:33;;;;;;;3.50;3.27;;;20.80;99.90;;;;;;5019543;28;20462;-81
2022/07/01 10:11:25;;;;;;;2.73;2.53;;;20.80;99.90;;;;;;5022840;28;20987;-81
2022/07/01 10:13:52;;;;;;;3.03;2.37;;;20.80;99.90;;;;;;5032522;28;20469;-80
2022/07/01 10:16:20;;;;;;;3.30;3.10;;;20.90;99.90;;;;;;5026833;28;20531;-80
2022/07/01 10:18:47;;;;;;;2.60;2.40;;;20.90;99.90;;;;;;5023610;28;20551;-80
2022/07/01 10:21:27;;;;;;;3.10;2.80;;;21.00;99.90;;;;;;5030864;28;20958;-81
2022/07/01 10:24:12;;;;;;;2.90;2.70;;;21.00;99.90;;;;;;5017386;28;20557;-80
2022/07/01 10:26:39;;;;;;;2.90;2.70;;;21.10;99.90;;;;;;5018035;28;20447;-80
2022/07/01 10:29:07;;;;;;;4.20;3.50;;;21.10;99.90;;;;;;5026228;28;20477;-80
2022/07/01 10:31:37;;;;;;;3.93;2.90;;;21.10;99.90;;;;;;5022121;28;20466;-81
2022/07/01 10:34:04;;;;;;;8.00;3.30;;;21.10;99.90;;;;;;5025684;28;20542;-81
2022/07/01 10:36:33;;;;;;;2.87;2.67;;;21.10;99.90;;;;;;5025452;28;20608;-80
2022/07/01 10:39:17;;;;;;;3.13;2.70;;;21.10;99.90;;;;;;5021936;28;20904;-79
2022/07/01 10:41:57;;;;;;;3.60;3.30;;;21.10;99.90;;;;;;5028911;28;20471;-79
2022/07/01 10:44:28;;;;;;;3.50;3.20;;;21.00;99.90;;;;;;5027015;28;20957;-79
2022/07/01 10:46:59;;;;;;;3.47;3.17;;;21.00;99.90;;;;;;5021538;28;20455;-80
2022/07/01 10:49:52;;;;;;;3.53;3.23;;;20.90;99.90;;;;;;5013722;28;20463;-79
2022/07/01 10:52:19;;;;;;;2.97;2.67;;;20.90;99.90;;;;;;5023219;28;20474;-81
2022/07/01 10:54:53;;;;;;;3.83;3.00;;;20.80;99.90;;;;;;5024913;28;20461;-80
2022/07/01 10:57:23;;;;;;;2.63;2.43;;;20.80;99.90;;;;;;5020238;28;20466;-80
2022/07/01 10:59:51;;;;;;;2.87;2.67;;;20.80;99.90;;;;;;5024806;28;20576;-81
2022/07/01 11:02:20;;;;;;;3.00;2.80;;;20.80;99.90;;;;;;5016739;28;21012;-81
2022/07/01 11:04:47;;;;;;;3.20;2.90;;;20.80;99.90;;;;;;5024594;28;20467;-80
2022/07/01 11:07:14;;;;;;;3.27;2.70;;;20.90;99.90;;;;;;5022580;28;20960;-80
2022/07/01 11:09:41;;;;;;;3.00;2.77;;;20.90;99.90;;;;;;5026029;28;20462;-81
2022/07/01 11:12:10;;;;;;;3.27;3.07;;;20.90;99.90;;;;;;5019419;28;20439;-82
2022/07/01 11:14:37;;;;;;;3.60;3.30;;;21.00;99.90;;;;;;5013725;28;20833;-82
2022/07/01 11:17:08;;;;;;;2.83;2.63;;;21.10;99.90;;;;;;5018506;28;20469;-80
2022/07/01 11:19:35;;;;;;;2.70;2.50;;;21.10;99.90;;;;;;5025607;28;20571;-81
2022/07/01 11:22:02;;;;;;;2.67;2.47;;;21.20;99.90;;;;;;5012397;28;20480;-82
2022/07/01 11:24:29;;;;;;;2.83;2.63;;;21.20;99.90;;;;;;5022603;28;20459;-80
2022/07/01 11:27:01;;;;;;;2.73;2.53;;;21.20;99.90;;;;;;5029123;28;20462;-80
2022/07/01 11:29:30;;;;;;;2.30;2.20;;;21.20;99.90;;;;;;5026387;28;20483;-82
2022/07/01 11:31:56;;;;;;;2.77;2.57;;;21.20;99.90;;;;;;5017136;28;20466;-80
2022/07/01 11:34:23;;;;;;;2.83;2.63;;;21.20;99.90;;;;;;5026323;28;20481;-80
2022/07/01 11:39:41;;;;;;;2.70;2.50;;;21.20;99.90;;;;;;4970436;28;20624;-80
2022/07/01 11:42:11;;;;;;;2.27;2.07;;;21.20;99.90;;;;;;5008975;28;20455;-81
2022/07/01 11:44:41;;;;;;;3.00;2.43;;;21.20;99.90;;;;;;5016905;28;20980;-81
2022/07/01 11:47:11;;;;;;;2.60;2.40;;;21.30;99.90;;;;;;5020476;28;20467;-81
2022/07/01 11:49:44;;;;;;;2.33;2.13;;;21.30;99.90;;;;;;5019549;28;20459;-80
2022/07/01 11:52:11;;;;;;;2.50;2.30;;;21.30;99.90;;;;;;5014790;28;20549;-81
2022/07/01 11:54:40;;;;;;;2.40;2.20;;;21.30;99.90;;;;;;5020588;28;20465;-83
2022/07/01 11:57:11;;;;;;;3.53;2.37;;;21.30;99.90;;;;;;5024021;28;20474;-80
2022/07/01 11:59:40;;;;;;;2.00;1.90;;;21.40;99.90;;;;;;5018708;28;20682;-81
2022/07/01 12:02:08;;;;;;;2.73;2.10;;;21.40;99.90;;;;;;5021769;28;20480;-81
2022/07/01 12:04:35;;;;;;;2.63;2.43;;;21.40;99.90;;;;;;5026208;28;20473;-80
2022/07/01 12:07:02;;;;;;;2.40;2.20;;;21.40;99.90;;;;;;5019767;28;20457;-79
2022/07/01 12:09:29;;;;;;;1.90;1.80;;;21.40;99.90;;;;;;5012968;28;20466;-80
2022/07/01 12:11:56;;;;;;;2.20;1.97;;;21.40;99.90;;;;;;5019375;28;20451;-80
2022/07/01 12:14:24;;;;;;;2.67;2.47;;;21.50;99.90;;;;;;5013994;28;20467;-80
2022/07/01 12:16:54;;;;;;;1.77;1.67;;;21.50;99.90;;;;;;5025734;28;20454;-80
2022/07/01 12:19:27;;;;;;;2.93;1.87;;;21.50;99.90;;;;;;5024402;28;21002;-80
2022/07/01 12:21:57;;;;;;;2.37;1.93;;;21.60;99.90;;;;;;5013433;28;20458;-81
2022/07/01 12:24:25;;;;;;;2.10;1.90;;;21.60;99.90;;;;;;5017873;28;20779;-82
2022/07/01 12:27:02;;;;;;;2.80;1.73;;;21.60;99.90;;;;;;5022978;28;20837;-80
2022/07/01 12:29:30;;;;;;;2.10;1.70;;;21.60;99.90;;;;;;5026151;28;20475;-81
2022/07/01 12:32:01;;;;;;;2.17;1.97;;;21.60;99.90;;;;;;5019919;28;20959;-78
2022/07/01 12:34:41;;;;;;;2.97;1.53;;;21.60;99.90;;;;;;5028478;28;20478;-81
2022/07/01 12:37:14;;;;;;;1.70;1.60;;;21.70;99.90;;;;;;5018195;28;20471;-81
2022/07/01 12:39:45;;;;;;;2.23;1.77;;;21.70;99.90;;;;;;5029365;28;20497;-81
2022/07/01 12:42:21;;;;;;;1.60;1.50;;;21.70;99.90;;;;;;5028028;28;20474;-81
2022/07/01 12:44:48;;;;;;;1.40;1.23;;;21.70;99.90;;;;;;5023694;28;20826;-81
2022/07/01 12:47:20;;;;;;;2.27;1.70;;;21.70;99.90;;;;;;5018417;28;20470;-82
2022/07/01 12:49:47;;;;;;;2.60;1.73;;;21.70;99.90;;;;;;5023421;28;20955;-81
2022/07/01 12:52:28;;;;;;;2.43;1.63;;;21.60;99.90;;;;;;5018362;28;20455;-81
2022/07/01 12:54:57;;;;;;;2.60;1.60;;;21.60;99.90;;;;;;5022046;28;20457;-80
2022/07/01 12:57:31;;;;;;;1.40;1.30;;;21.60;99.90;;;;;;5020410;28;20471;-80
2022/07/01 12:59:58;;;;;;;1.50;1.40;;;21.60;99.90;;;;;;5020660;28;20486;-81
2022/07/01 13:02:26;;;;;;;1.60;1.50;;;21.60;99.90;;;;;;5018950;28;20991;-80
2022/07/01 13:04:53;;;;;;;2.00;1.47;;;21.60;99.90;;;;;;5023047;28;20466;-81
2022/07/01 13:07:19;;;;;;;2.37;1.63;;;21.60;99.90;;;;;;5019735;28;21992;-81
2022/07/01 13:09:46;;;;;;;1.60;1.50;;;21.60;99.90;;;;;;5024728;28;20438;-81
2022/07/01 13:12:13;;;;;;;1.67;1.47;;;21.60;99.90;;;;;;5029240;28;20993;-81
2022/07/01 13:14:40;;;;;;;1.47;1.30;;;21.60;99.90;;;;;;5028529;28;20534;-81
2022/07/01 13:17:07;;;;;;;1.50;1.00;;;21.60;99.90;;;;;;5025137;28;20549;-80
2022/07/01 13:19:37;;;;;;;2.47;1.47;;;21.60;99.90;;;;;;5025328;28;20485;-80
2022/07/01 13:22:06;;;;;;;1.50;1.10;;;21.60;99.90;;;;;;5024230;28;20461;-81
2022/07/01 13:24:33;;;;;;;1.50;1.30;;;21.60;99.90;;;;;;5030885;28;20457;-79
2022/07/01 13:27:00;;;;;;;1.20;1.00;;;21.60;99.90;;;;;;5029674;28;20461;-83